Norwalk, IA (50211)

5:01 PM CDT on October 23, 2014 (GMT -0500)
Norwalk, IA (2mi SW) | Change Station
CLOSE
Current Station
Personal Weather Station
Location: Norwalk, IA
Elevation: 919 ft
Nearby Weather Stations

Elev 919 ft 41.46 °N, 93.71 °W | Updated 4 minutes ago

Partly Cloudy
Partly Cloudy
70.3 °F
Feels Like 76 °F
N
2.2
Wind Variable Wind from WNW

Today
High -- | Low -- °F
--% Chance of Precip.
Yesterday
High -- | Low -- °F
Precip. -- in
7:35 AM 6:21 PM
New Moon, 0% visible
Pressure 30.00 in
Visibility 10.0 miles
Clouds Few 2000 ft
Heat Index 76 °F
Dew Point 54 °F
Humidity 57%
Rainfall 0.23 in
Snow Depth Not available.
UV 1 out of 12
Pollen .30 out of 12
Air Quality Not available.
Flu Activity Sporadic
METAR KDSM 232154Z VRB03KT 10SM FEW020 22/09 A3000 RMK AO2 SLP157 T02220094

More Conditions Fewer Conditions

Pressure 30.00 in
Visibility 10.0 miles
Clouds Few 2000 ft
Heat Index 76 °F
Dew Point 54 °F
Humidity 57%
Rainfall 0.23 in
Snow Depth Not available.
UV 1 out of 12
Pollen .30 out of 12
Air Quality Not available.
Flu Activity Sporadic
METAR KDSM 232154Z VRB03KT 10SM FEW020 22/09 A3000 RMK AO2 SLP157 T02220094

More Conditions Fewer Conditions

10-Day Weather Forecast

Almanac

Astronomy

Oct. 23, 2014 Rise Set
Actual Time 7:35 AM CDT 6:21 PM CDT
Civil Twilight 7:07 AM CDT 6:49 PM CDT
Nautical Twilight 6:35 AM CDT 7:22 PM CDT
Astronomical Twilight 6:03 AM CDT 7:54 PM CDT
Moon 7:15 AM CDT 6:23 PM CDT
Length of Visible Light 11h 42m
Length of Day
10h 45m
Tomorrow will be 2m 34s shorter.
New Moon, 0% of the Moon is Illuminated
Today
New Moon
Oct 30
First Quarter
Nov 6
Full
Nov 14
Last Quarter
Nov 22
New

Today's Extremes

State Highs State Lows

Community

WunderPhotos

Upload Photos

1,764,383 photos uploaded!

WunderBlogs® & News

Nearby

Snow Depth

Station Depth Elevation
No new snow has been reported.

Earthquake Activity

City Distance Mag. Time & Date
No recent earthquake activity has been reported nearby.
Minimum magnitude displayed is 2.5.

Coastal Water Temperatures

Place Temperature
No Stations Reporting

Nearby Weather Stations